Agadez, Niger
Current Conditions -  °F | °C
As of 10:30 PM on Sunday 21 Dec 2014 (Local Time) from KQAZ Reporting Station
Clear Clear  
Wind Chill: 64°   Ceiling: Unl
Heat Index: 64°   Visibility: 6mi
Dew Point: 28°   Wind: 7mph
Humidity: 26%   Direction: 110°ESE
Pressure: 30.09"   Gusts: NA
Location:  17°N, 7.98°E
Report Text: KQAZ 212130Z AUTO 11006KT 9999 CLR 18/M02 A3009 RMK CDP03565 CLR
Loading
Personal Weather Stations






























Interactive Weather Map New forecast layout! Learn more

10-Day Weather Forecast

Advertisements
Track Severe Weather on mobile